createdAt,value
2016-04-05T00:00:25.464Z,942.83
2016-04-05T00:01:25.499Z,942.79
2016-04-05T00:02:25.516Z,942.79
2016-04-05T00:03:25.519Z,942.81
2016-04-05T00:04:25.554Z,942.77
2016-04-05T00:05:25.572Z,942.8
2016-04-05T00:06:25.590Z,942.81
2016-04-05T00:07:25.609Z,942.84
2016-04-05T00:08:25.627Z,942.84
2016-04-05T00:09:25.646Z,942.91
2016-04-05T00:10:25.663Z,942.84
2016-04-05T00:11:25.682Z,942.8
2016-04-05T00:12:25.716Z,942.81
2016-04-05T00:13:25.718Z,942.81
2016-04-05T00:14:25.737Z,942.81
2016-04-05T00:15:25.754Z,942.81
2016-04-05T00:16:25.773Z,942.82
2016-04-05T00:17:25.792Z,942.83
2016-04-05T00:18:25.809Z,942.87
2016-04-05T00:19:25.829Z,942.81
2016-04-05T00:20:25.847Z,942.84
2016-04-05T00:21:25.865Z,942.86
2016-04-05T00:22:25.884Z,942.85
2016-04-05T00:23:25.901Z,942.86
2016-04-05T00:24:25.920Z,942.9
2016-04-05T00:25:25.938Z,942.95
2016-04-05T00:26:25.956Z,942.94
2016-04-05T00:27:25.991Z,942.9
2016-04-05T00:28:26.009Z,942.92
2016-04-05T00:29:26.012Z,942.9
2016-04-05T00:30:26.030Z,942.9
2016-04-05T00:31:26.064Z,942.89
2016-04-05T00:32:26.067Z,942.87
2016-04-05T00:33:26.086Z,942.88
2016-04-05T00:34:26.119Z,942.82
2016-04-05T00:35:26.138Z,942.83
2016-04-05T00:36:26.140Z,942.77
2016-04-05T00:37:26.158Z,942.81
2016-04-05T00:38:26.191Z,942.83
2016-04-05T00:39:26.194Z,942.82
2016-04-05T00:40:26.213Z,942.85
2016-04-05T00:41:26.247Z,942.88
2016-04-05T00:42:26.266Z,942.81
2016-04-05T00:43:26.284Z,942.82
2016-04-05T00:44:26.505Z,942.83
2016-04-05T00:45:26.304Z,942.8
2016-04-05T00:46:26.338Z,942.75
2016-04-05T00:47:26.357Z,942.75
2016-04-05T00:48:26.359Z,942.78
2016-04-05T00:49:26.378Z,942.81
2016-04-05T00:50:26.411Z,942.73
2016-04-05T00:51:26.414Z,942.74
2016-04-05T00:52:26.433Z,942.7
2016-04-05T00:53:26.466Z,942.66
2016-04-05T00:54:26.485Z,942.66
2016-04-05T00:55:26.487Z,942.67
2016-04-05T00:56:26.506Z,942.66
2016-04-05T00:57:26.540Z,942.68
2016-04-05T00:58:26.542Z,942.64
2016-04-05T00:59:26.561Z,942.63
2016-04-05T01:00:26.579Z,942.59
2016-04-05T01:01:26.613Z,942.54
2016-04-05T01:02:26.616Z,942.56
2016-04-05T01:03:26.634Z,942.52
2016-04-05T01:04:26.653Z,942.49
2016-04-05T01:05:26.672Z,942.47
2016-04-05T01:06:26.689Z,942.5
2016-04-05T01:07:26.708Z,942.54
2016-04-05T01:08:26.726Z,942.53
2016-04-05T01:09:26.744Z,942.51
2016-04-05T01:10:26.763Z,942.52
2016-04-05T01:11:26.780Z,942.48
2016-04-05T01:12:26.799Z,942.4
2016-04-05T01:13:26.817Z,942.42
2016-04-05T01:14:26.835Z,942.41
2016-04-05T01:15:26.854Z,942.34
2016-04-05T01:16:26.872Z,942.35
2016-04-05T01:17:26.890Z,942.37
2016-04-05T01:18:26.909Z,942.37
2016-04-05T01:19:26.927Z,942.35
2016-04-05T01:20:26.946Z,942.3
2016-04-05T01:21:26.964Z,942.28
2016-04-05T01:22:26.982Z,942.29
2016-04-05T01:23:27.000Z,942.3
2016-04-05T01:24:27.003Z,942.28
2016-04-05T01:25:27.022Z,942.33
2016-04-05T01:26:27.039Z,942.31
2016-04-05T01:27:27.058Z,942.32
2016-04-05T01:28:27.076Z,942.26
2016-04-05T01:29:27.094Z,942.26
2016-04-05T01:30:27.113Z,942.2
2016-04-05T01:31:27.131Z,942.2
2016-04-05T01:32:27.166Z,942.23
2016-04-05T01:33:27.169Z,942.24
2016-04-05T01:34:27.186Z,942.28
2016-04-05T01:35:27.205Z,942.22
2016-04-05T01:36:27.222Z,942.23
2016-04-05T01:37:27.241Z,942.25
2016-04-05T01:38:27.260Z,942.24
2016-04-05T01:39:27.277Z,942.26
2016-04-05T01:40:27.297Z,942.27
2016-04-05T01:41:27.299Z,942.27
2016-04-05T01:42:27.349Z,942.29
2016-04-05T01:43:27.336Z,942.27
2016-04-05T01:44:27.354Z,942.28
2016-04-05T01:45:27.372Z,942.29
2016-04-05T01:46:27.396Z,942.27
2016-04-05T01:47:27.405Z,942.28
2016-04-05T01:48:27.422Z,942.21
2016-04-05T01:49:27.542Z,942.26
2016-04-05T01:50:27.466Z,942.29
2016-04-05T01:51:27.468Z,942.24
2016-04-05T01:52:27.487Z,942.29
2016-04-05T01:53:27.506Z,942.31
2016-04-05T01:54:27.523Z,942.28
2016-04-05T01:55:27.543Z,942.24
2016-04-05T01:56:27.561Z,942.27
2016-04-05T01:57:27.579Z,942.28
2016-04-05T01:58:27.597Z,942.29
2016-04-05T01:59:27.615Z,942.26
2016-04-05T02:00:27.634Z,942.28
2016-04-05T02:01:27.653Z,942.29
2016-04-05T02:02:27.670Z,942.28
2016-04-05T02:03:27.689Z,942.26
2016-04-05T02:04:27.708Z,942.33
2016-04-05T02:05:27.711Z,942.32
2016-04-05T02:06:27.729Z,942.37
2016-04-05T02:07:27.762Z,942.42
2016-04-05T02:08:27.770Z,942.37
2016-04-05T02:09:27.789Z,942.31
2016-04-05T02:10:27.807Z,942.35
2016-04-05T02:11:27.825Z,942.31
2016-04-05T02:12:27.827Z,942.3
2016-04-05T02:13:27.846Z,942.25
2016-04-05T02:14:27.864Z,942.32
2016-04-05T02:15:27.882Z,942.28
2016-04-05T02:16:27.901Z,942.31
2016-04-05T02:17:27.918Z,942.34
2016-04-05T02:18:27.937Z,942.3
2016-04-05T02:19:27.956Z,942.29
2016-04-05T02:20:27.974Z,942.27
2016-04-05T02:21:27.993Z,942.24
2016-04-05T02:22:27.995Z,942.23
2016-04-05T02:23:28.029Z,942.21
2016-04-05T02:24:28.032Z,942.21
2016-04-05T02:25:28.065Z,942.25
2016-04-05T02:26:28.068Z,942.2
2016-04-05T02:27:28.086Z,942.17
2016-04-05T02:28:28.105Z,942.24
2016-04-05T02:29:28.123Z,942.22
2016-04-05T02:30:28.141Z,942.25
2016-04-05T02:31:28.160Z,942.21
2016-04-05T02:32:28.162Z,942.21
2016-04-05T02:33:28.181Z,942.19
2016-04-05T02:34:28.199Z,942.18
2016-04-05T02:35:28.217Z,942.17
2016-04-05T02:36:28.236Z,942.16
2016-04-05T02:37:28.255Z,942.17
2016-04-05T02:38:28.272Z,942.17
2016-04-05T02:39:28.291Z,942.17
2016-04-05T02:40:28.308Z,942.14
2016-04-05T02:41:28.327Z,942.11
2016-04-05T02:42:28.346Z,942.14
2016-04-05T02:43:28.348Z,942.13
2016-04-05T02:44:28.383Z,942.12
2016-04-05T02:45:28.384Z,942.07
2016-04-05T02:46:28.390Z,942.09
2016-04-05T02:47:28.395Z,942.06
2016-04-05T02:48:28.416Z,942.1
2016-04-05T02:49:28.406Z,942.08
2016-04-05T02:50:28.412Z,942.09
2016-04-05T02:51:28.411Z,942.02
2016-04-05T02:52:28.425Z,942.02
2016-04-05T02:53:28.438Z,942.03
2016-04-05T02:54:28.452Z,942.02
2016-04-05T02:55:28.467Z,942
2016-04-05T02:56:28.483Z,942.03
2016-04-05T02:57:28.500Z,942.02
2016-04-05T02:58:28.516Z,942.05
2016-04-05T02:59:28.517Z,941.98
2016-04-05T03:00:28.550Z,941.98
2016-04-05T03:01:28.552Z,942
2016-04-05T03:02:28.569Z,941.97
2016-04-05T03:03:28.587Z,941.97
2016-04-05T03:04:28.605Z,941.95
2016-04-05T03:05:28.622Z,941.98
2016-04-05T03:06:28.641Z,942
2016-04-05T03:07:28.658Z,942.01
2016-04-05T03:08:28.677Z,941.98
2016-04-05T03:09:28.696Z,941.98
2016-04-05T03:10:28.730Z,942.02
2016-04-05T03:11:28.717Z,942
2016-04-05T03:12:28.735Z,941.95
2016-04-05T03:13:28.754Z,941.97
2016-04-05T03:14:28.772Z,942
2016-04-05T03:15:28.790Z,941.93
2016-04-05T03:16:28.808Z,941.94
2016-04-05T03:17:28.811Z,941.97
2016-04-05T03:18:28.829Z,941.97
2016-04-05T03:19:28.848Z,941.99
2016-04-05T03:20:28.865Z,941.98
2016-04-05T03:21:28.884Z,942
2016-04-05T03:22:28.887Z,941.99
2016-04-05T03:23:28.906Z,942.01
2016-04-05T03:24:28.923Z,942.03
2016-04-05T03:25:28.942Z,942.03
2016-04-05T03:26:28.960Z,942.05
2016-04-05T03:27:28.979Z,942.01
2016-04-05T03:28:28.997Z,942.04
2016-04-05T03:29:29.001Z,942.02
2016-04-05T03:30:29.018Z,942
2016-04-05T03:31:29.037Z,942.06
2016-04-05T03:32:29.071Z,942.01
2016-04-05T03:33:29.073Z,941.98
2016-04-05T03:34:29.092Z,941.99
2016-04-05T03:35:29.110Z,941.95
2016-04-05T03:36:29.110Z,941.9
2016-04-05T03:37:29.128Z,941.9
2016-04-05T03:38:29.146Z,941.87
2016-04-05T03:39:29.165Z,941.9
2016-04-05T03:40:29.183Z,941.95
2016-04-05T03:41:29.202Z,941.94
2016-04-05T03:42:29.219Z,941.92
2016-04-05T03:43:29.222Z,941.92
2016-04-05T03:44:29.241Z,941.92
2016-04-05T03:45:29.260Z,941.96
2016-04-05T03:46:29.277Z,941.93
2016-04-05T03:47:29.296Z,941.93
2016-04-05T03:48:29.314Z,941.91
2016-04-05T03:49:29.333Z,941.89
2016-04-05T03:50:29.335Z,941.89
2016-04-05T03:51:29.354Z,941.87
2016-04-05T03:52:29.371Z,941.91
2016-04-05T03:53:29.390Z,941.91
2016-04-05T03:54:29.409Z,941.91
2016-04-05T03:55:29.427Z,941.88
2016-04-05T03:56:29.446Z,941.85
2016-04-05T03:57:29.448Z,941.85
2016-04-05T03:58:29.466Z,941.84
2016-04-05T03:59:29.484Z,941.85
2016-04-05T04:00:29.503Z,941.82
2016-04-05T04:01:29.520Z,941.87
2016-04-05T04:02:29.539Z,941.85
2016-04-05T04:03:29.558Z,941.87
2016-04-05T04:04:29.560Z,941.86
2016-04-05T04:05:29.578Z,941.85
2016-04-05T04:06:29.597Z,941.85
2016-04-05T04:07:29.615Z,941.86
2016-04-05T04:08:29.634Z,941.85
2016-04-05T04:09:29.652Z,941.84
2016-04-05T04:10:29.670Z,941.86
2016-04-05T04:11:29.673Z,941.88
2016-04-05T04:12:29.692Z,941.88
2016-04-05T04:13:29.710Z,941.87
2016-04-05T04:14:29.728Z,941.85
2016-04-05T04:15:29.746Z,941.92
2016-04-05T04:16:29.764Z,941.95
2016-04-05T04:17:29.783Z,941.92
2016-04-05T04:18:29.785Z,941.94
2016-04-05T04:19:29.804Z,941.91
2016-04-05T04:20:29.822Z,941.91
2016-04-05T04:21:29.840Z,941.9
2016-04-05T04:22:29.859Z,941.89
2016-04-05T04:23:29.861Z,941.9
2016-04-05T04:24:29.879Z,941.91
2016-04-05T04:25:29.898Z,941.94
2016-04-05T04:26:29.916Z,941.9
2016-04-05T04:27:29.935Z,941.89
2016-04-05T04:28:29.953Z,941.91
2016-04-05T04:29:29.971Z,941.91
2016-04-05T04:30:29.989Z,941.93
2016-04-05T04:31:30.008Z,941.94
2016-04-05T04:32:30.011Z,941.9
2016-04-05T04:33:30.029Z,941.88
2016-04-05T04:34:30.048Z,941.9
2016-04-05T04:35:30.065Z,941.91
2016-04-05T04:36:30.067Z,941.89
2016-04-05T04:37:30.103Z,941.95
2016-04-05T04:38:30.120Z,941.91
2016-04-05T04:39:30.123Z,941.9
2016-04-05T04:40:30.142Z,941.93
2016-04-05T04:41:30.160Z,941.91
2016-04-05T04:42:30.178Z,941.93
2016-04-05T04:43:30.181Z,941.92
2016-04-05T04:44:30.199Z,941.93
2016-04-05T04:45:30.217Z,941.94
2016-04-05T04:46:30.236Z,941.94
2016-04-05T04:47:30.255Z,941.91
2016-04-05T04:48:30.272Z,941.98
2016-04-05T04:49:30.275Z,942
2016-04-05T04:50:30.293Z,941.98
2016-04-05T04:51:30.312Z,941.99
2016-04-05T04:52:30.330Z,941.98
2016-04-05T04:53:30.348Z,942
2016-04-05T04:54:30.352Z,942.02
2016-04-05T04:55:30.369Z,941.97
2016-04-05T04:56:30.387Z,942.03
2016-04-05T04:57:30.407Z,942.05
2016-04-05T04:58:30.424Z,942.01
2016-04-05T04:59:30.443Z,942.02
2016-04-05T05:00:30.476Z,942.07
2016-04-05T05:01:30.464Z,942.07
2016-04-05T05:02:30.482Z,942.06
2016-04-05T05:03:30.500Z,942.11
2016-04-05T05:04:30.518Z,942.07
2016-04-05T05:05:30.537Z,942.1
2016-04-05T05:06:30.555Z,942.1
2016-04-05T05:07:30.558Z,942.09
2016-04-05T05:08:30.576Z,942.1
2016-04-05T05:09:30.595Z,942.15
2016-04-05T05:10:30.613Z,942.16
2016-04-05T05:11:30.631Z,942.15
2016-04-05T05:12:30.650Z,942.22
2016-04-05T05:13:30.652Z,942.23
2016-04-05T05:14:30.670Z,942.22
2016-04-05T05:15:30.705Z,942.29
2016-04-05T05:16:30.708Z,942.2
2016-04-05T05:17:30.725Z,942.22
2016-04-05T05:18:30.727Z,942.23
2016-04-05T05:19:30.747Z,942.2
2016-04-05T05:20:30.765Z,942.21
2016-04-05T05:21:30.782Z,942.19
2016-04-05T05:22:30.802Z,942.21
2016-04-05T05:23:30.819Z,942.22
2016-04-05T05:24:30.822Z,942.2
2016-04-05T05:25:30.841Z,942.19
2016-04-05T05:26:30.859Z,942.21
2016-04-05T05:27:30.877Z,942.2
2016-04-05T05:28:30.896Z,942.22
2016-04-05T05:29:30.915Z,942.22
2016-04-05T05:30:30.917Z,942.27
2016-04-05T05:31:30.935Z,942.3
2016-04-05T05:32:30.953Z,942.29
2016-04-05T05:33:30.971Z,942.29
2016-04-05T05:34:30.990Z,942.27
2016-04-05T05:35:31.008Z,942.3
2016-04-05T05:36:31.026Z,942.31
2016-04-05T05:37:31.045Z,942.29
2016-04-05T05:38:31.047Z,942.37
2016-04-05T05:39:31.067Z,942.39
2016-04-05T05:40:31.084Z,942.4
2016-04-05T05:41:31.102Z,942.37
2016-04-05T05:42:31.121Z,942.33
2016-04-05T05:43:31.123Z,942.38
2016-04-05T05:44:31.142Z,942.34
2016-04-05T05:45:31.161Z,942.36
2016-04-05T05:46:31.178Z,942.32
2016-04-05T05:47:31.197Z,942.34
2016-04-05T05:48:31.215Z,942.33
2016-04-05T05:49:31.218Z,942.31
2016-04-05T05:50:31.251Z,942.3
2016-04-05T05:51:31.254Z,942.29
2016-04-05T05:52:31.272Z,942.28
2016-04-05T05:53:31.307Z,942.25
2016-04-05T05:54:31.310Z,942.27
2016-04-05T05:55:31.327Z,942.25
2016-04-05T05:56:31.346Z,942.31
2016-04-05T05:57:31.365Z,942.38
2016-04-05T05:58:31.367Z,942.41
2016-04-05T05:59:31.401Z,942.39
2016-04-05T06:00:31.404Z,942.29
2016-04-05T06:01:31.422Z,942.36
2016-04-05T06:02:31.440Z,942.35
2016-04-05T06:03:31.458Z,942.38
2016-04-05T06:04:31.493Z,942.39
2016-04-05T06:05:31.495Z,942.37
2016-04-05T06:06:31.528Z,942.4
2016-04-05T06:08:31.550Z,942.39
2016-04-05T06:09:31.568Z,942.41
2016-04-05T06:10:31.571Z,942.42
2016-04-05T06:11:31.589Z,942.48
2016-04-05T06:12:31.608Z,942.5
2016-04-05T06:13:31.626Z,942.44
2016-04-05T06:14:31.644Z,942.46
2016-04-05T06:15:31.663Z,942.44
2016-04-05T06:16:31.681Z,942.5
2016-04-05T06:17:31.699Z,942.45
2016-04-05T06:18:31.780Z,942.45
2016-04-05T06:19:31.736Z,942.49
2016-04-05T06:20:31.754Z,942.5
2016-04-05T06:21:31.772Z,942.44
2016-04-05T06:22:31.791Z,942.46
2016-04-05T06:23:31.810Z,942.44
2016-04-05T06:24:31.828Z,942.47
2016-04-05T06:25:31.846Z,942.47
2016-04-05T06:26:31.863Z,942.48
2016-04-05T06:27:31.883Z,942.46
2016-04-05T06:28:31.901Z,942.48
2016-04-05T06:29:31.918Z,942.49
2016-04-05T06:30:31.938Z,942.52
2016-04-05T06:31:31.956Z,942.5
2016-04-05T06:32:31.974Z,942.48
2016-04-05T06:33:31.992Z,942.52
2016-04-05T06:34:32.010Z,942.58
2016-04-05T06:35:32.029Z,942.6
2016-04-05T06:36:32.062Z,942.61
2016-04-05T06:37:32.065Z,942.62
2016-04-05T06:38:32.084Z,942.59
2016-04-05T06:39:32.103Z,942.68
2016-04-05T06:40:32.120Z,942.67
2016-04-05T06:41:32.154Z,942.62
2016-04-05T06:42:32.157Z,942.65
2016-04-05T06:43:32.191Z,942.61
2016-04-05T06:44:32.209Z,942.66
2016-04-05T06:45:32.228Z,942.68
2016-04-05T06:46:32.247Z,942.67
2016-04-05T06:47:32.264Z,942.64
2016-04-05T06:48:32.282Z,942.66
2016-04-05T06:49:32.301Z,942.7
2016-04-05T06:50:32.335Z,942.64
2016-04-05T06:51:32.353Z,942.67
2016-04-05T06:52:32.388Z,942.73
2016-04-05T06:53:32.390Z,942.75
2016-04-05T06:54:32.408Z,942.73
2016-04-05T06:55:32.442Z,942.75
2016-04-05T06:56:32.444Z,942.73
2016-04-05T06:57:32.479Z,942.69
2016-04-05T06:58:32.497Z,942.68
2016-04-05T06:59:32.515Z,942.66
2016-04-05T07:00:32.534Z,942.7
2016-04-05T07:01:32.552Z,942.71
2016-04-05T07:02:32.585Z,942.76
2016-04-05T07:03:32.604Z,942.78
2016-04-05T07:04:32.623Z,942.78
2016-04-05T07:05:32.640Z,942.84
2016-04-05T07:06:32.675Z,942.84
2016-04-05T07:07:32.679Z,942.82
2016-04-05T07:08:32.713Z,942.78
2016-04-05T07:09:32.731Z,942.81
2016-04-05T07:10:32.750Z,942.8
2016-04-05T07:11:32.768Z,942.84
2016-04-05T07:12:32.786Z,942.81
2016-04-05T07:13:32.820Z,942.84
2016-04-05T07:14:32.839Z,942.82
2016-04-05T07:15:32.872Z,942.84
2016-04-05T07:16:32.891Z,942.81
2016-04-05T07:17:32.910Z,942.82
2016-04-05T07:18:32.928Z,942.83
2016-04-05T07:19:32.946Z,942.89
2016-04-05T07:20:32.964Z,942.92
2016-04-05T07:21:32.999Z,942.96
2016-04-05T07:22:33.016Z,942.93
2016-04-05T07:23:33.035Z,942.91
2016-04-05T07:24:33.069Z,942.91
2016-04-05T07:25:33.087Z,942.89
2016-04-05T07:26:33.105Z,942.92
2016-04-05T07:27:33.139Z,942.9
2016-04-05T07:28:33.157Z,942.93
2016-04-05T07:29:33.176Z,942.98
2016-04-05T07:30:33.194Z,943.02
2016-04-05T07:31:33.213Z,943.03
2016-04-05T07:32:33.246Z,943.02
2016-04-05T07:33:33.264Z,943.02
2016-04-05T07:34:33.283Z,942.98
2016-04-05T07:35:33.317Z,943.03
2016-04-05T07:36:33.336Z,943.03
2016-04-05T07:37:33.353Z,943.07
2016-04-05T07:38:33.373Z,943.09
2016-04-05T07:39:33.390Z,943.13
2016-04-05T07:40:33.424Z,943.09
2016-04-05T07:41:33.442Z,943.09
2016-04-05T07:42:33.461Z,943.08
2016-04-05T07:43:33.495Z,943.11
2016-04-05T07:44:33.513Z,943.11
2016-04-05T07:45:33.578Z,943.14
2016-04-05T07:46:33.566Z,943.16
2016-04-05T07:47:33.583Z,943.17
2016-04-05T07:48:33.618Z,943.2
2016-04-05T07:49:33.636Z,943.26
2016-04-05T07:50:33.639Z,943.29
2016-04-05T07:51:33.672Z,943.26
2016-04-05T07:52:33.691Z,943.22
2016-04-05T07:53:33.710Z,943.2
2016-04-05T07:54:33.743Z,943.18
2016-04-05T07:55:33.762Z,943.23
2016-04-05T07:56:33.780Z,943.27
2016-04-05T07:57:33.813Z,943.23
2016-04-05T07:58:33.832Z,943.2
2016-04-05T07:59:33.851Z,943.24
2016-04-05T08:00:33.900Z,943.23
2016-04-05T08:01:33.903Z,943.28
2016-04-05T08:02:33.920Z,943.29
2016-04-05T08:03:33.955Z,943.32
2016-04-05T08:04:33.973Z,943.28
2016-04-05T08:05:34.007Z,943.33
2016-04-05T08:06:34.026Z,943.35
2016-04-05T08:07:34.044Z,943.34
2016-04-05T08:08:34.078Z,943.42
2016-04-05T08:09:34.096Z,943.42
2016-04-05T08:10:34.130Z,943.48
2016-04-05T08:11:34.148Z,943.46
2016-04-05T08:12:34.166Z,943.42
2016-04-05T08:13:34.201Z,943.42
2016-04-05T08:14:34.219Z,943.49
2016-04-05T08:15:34.253Z,943.49
2016-04-05T08:16:34.286Z,943.49
2016-04-05T08:17:34.305Z,943.54
2016-04-05T08:18:34.339Z,943.59
2016-04-05T08:19:34.357Z,943.47
2016-04-05T08:20:34.376Z,943.51
2016-04-05T08:21:34.410Z,943.54
2016-04-05T08:22:34.427Z,943.55
2016-04-05T08:23:34.477Z,943.53
2016-04-05T08:24:34.495Z,943.53
2016-04-05T08:25:34.499Z,943.58
2016-04-05T08:26:34.532Z,943.62
2016-04-05T08:27:34.566Z,943.65
2016-04-05T08:28:34.585Z,943.63
2016-04-05T08:29:34.618Z,943.65
2016-04-05T08:30:34.637Z,943.6
2016-04-05T08:31:34.655Z,943.62
2016-04-05T08:32:34.689Z,943.61
2016-04-05T08:33:34.723Z,943.62
2016-04-05T08:34:34.742Z,943.65
2016-04-05T08:35:34.776Z,943.65
2016-04-05T08:36:34.793Z,943.7
2016-04-05T08:37:34.828Z,943.78
2016-04-05T08:38:34.845Z,943.76
2016-04-05T08:39:34.880Z,943.76
2016-04-05T08:40:34.914Z,943.75
2016-04-05T08:41:34.931Z,943.81
2016-04-05T08:42:34.967Z,943.74
2016-04-05T08:43:34.984Z,943.78
2016-04-05T08:44:35.018Z,943.79
2016-04-05T08:45:35.036Z,943.87
2016-04-05T08:46:35.070Z,943.81
2016-04-05T08:47:35.105Z,943.77
2016-04-05T08:48:35.122Z,943.75
2016-04-05T08:49:35.158Z,943.79
2016-04-05T08:50:35.191Z,943.82
2016-04-05T08:51:35.208Z,943.83
2016-04-05T08:52:35.243Z,943.86
2016-04-05T08:53:35.276Z,943.83
2016-04-05T08:54:35.296Z,943.85
2016-04-05T08:55:35.329Z,943.82
2016-04-05T08:56:35.379Z,943.76
2016-04-05T08:57:35.382Z,943.74
2016-04-05T08:58:35.415Z,943.81
2016-04-05T08:59:35.449Z,943.79
2016-04-05T09:00:35.483Z,943.75
2016-04-05T09:01:35.501Z,943.76
2016-04-05T09:02:35.535Z,943.78
2016-04-05T09:03:35.570Z,943.76
2016-04-05T09:04:35.588Z,943.81
2016-04-05T09:05:35.621Z,943.76
2016-04-05T09:06:35.656Z,943.77
2016-04-05T09:07:35.689Z,943.82
2016-04-05T09:08:35.708Z,943.81
2016-04-05T09:09:35.747Z,943.84
2016-04-05T09:10:35.764Z,943.86
2016-04-05T09:11:35.800Z,943.89
2016-04-05T09:12:35.833Z,943.84
2016-04-05T09:13:35.851Z,943.87
2016-04-05T09:14:35.885Z,943.87
2016-04-05T09:15:35.919Z,943.89
2016-04-05T09:16:35.953Z,943.88
2016-04-05T09:17:35.971Z,943.89
2016-04-05T09:18:36.005Z,943.94
2016-04-05T09:19:36.039Z,943.89
2016-04-05T09:20:36.058Z,943.87
2016-04-05T09:21:36.091Z,943.92
2016-04-05T09:22:36.125Z,943.86
2016-04-05T09:23:36.144Z,943.95
2016-04-05T09:24:36.177Z,943.95
2016-04-05T09:25:36.212Z,943.92
2016-04-05T09:26:36.229Z,943.92
2016-04-05T09:27:36.280Z,943.93
2016-04-05T09:28:36.313Z,943.94
2016-04-05T09:29:36.316Z,943.96
2016-04-05T09:30:36.350Z,943.95
2016-04-05T09:31:36.368Z,943.95
2016-04-05T09:32:36.402Z,943.93
2016-04-05T09:33:36.436Z,943.9
2016-04-05T09:34:36.470Z,943.99
2016-04-05T09:35:36.489Z,943.98
2016-04-05T09:36:36.538Z,944.01
2016-04-05T09:37:36.541Z,944.02
2016-04-05T09:38:36.575Z,944.01
2016-04-05T09:39:36.609Z,944.07
2016-04-05T09:40:36.627Z,944.03
2016-04-05T09:41:36.661Z,944.01
2016-04-05T09:42:36.694Z,944.05
2016-04-05T09:43:36.729Z,944.03
2016-04-05T09:44:36.747Z,944.03
2016-04-05T09:45:36.780Z,944.03
2016-04-05T09:46:36.814Z,944.03
2016-04-05T09:47:36.833Z,944.05
2016-04-05T09:48:36.866Z,944.03
2016-04-05T09:49:36.901Z,944.02
2016-04-05T09:50:36.920Z,944
2016-04-05T09:51:36.953Z,944.09
2016-04-05T09:52:36.987Z,944.08
2016-04-05T09:53:37.022Z,944.06
2016-04-05T09:54:37.040Z,944.08
2016-04-05T09:55:37.074Z,944.13
2016-04-05T09:56:37.107Z,944.12
2016-04-05T09:57:37.126Z,944.1
2016-04-05T09:58:37.160Z,944.09
2016-04-05T09:59:37.178Z,944.09
2016-04-05T10:00:37.212Z,944.08
2016-04-05T10:01:37.245Z,944.06
2016-04-05T10:02:37.265Z,944.1
2016-04-05T10:03:37.298Z,944.12
2016-04-05T10:04:37.332Z,944.1
2016-04-05T10:05:37.365Z,944.06
2016-04-05T10:06:37.384Z,944.1
2016-04-05T10:07:37.417Z,944.11
2016-04-05T10:08:37.436Z,944.11
2016-04-05T10:09:37.470Z,944.11
2016-04-05T10:10:37.488Z,944.09
2016-04-05T10:11:37.522Z,944.09
2016-04-05T10:12:37.556Z,944.09
2016-04-05T10:13:37.575Z,944.08
2016-04-05T10:14:37.609Z,944.1
2016-04-05T10:15:37.643Z,944.16
2016-04-05T10:16:37.677Z,944.15
2016-04-05T10:17:37.695Z,944.13
2016-04-05T10:18:37.730Z,944.14
2016-04-05T10:19:37.747Z,944.16
2016-04-05T10:20:37.781Z,944.13
2016-04-05T10:21:37.815Z,944.16
2016-04-05T10:22:37.849Z,944.2
2016-04-05T10:23:37.868Z,944.18
2016-04-05T10:24:37.901Z,944.21
2016-04-05T10:25:37.936Z,944.2
2016-04-05T10:26:37.954Z,944.21
2016-04-05T10:27:37.988Z,944.18
2016-04-05T10:28:38.007Z,944.22
2016-04-05T10:29:38.040Z,944.22
2016-04-05T10:30:38.074Z,944.23
2016-04-05T10:31:38.092Z,944.23
2016-04-05T10:32:38.126Z,944.25
2016-04-05T10:33:38.160Z,944.24
2016-04-05T10:34:38.179Z,944.26
2016-04-05T10:35:38.212Z,944.32
2016-04-05T10:36:38.246Z,944.3
2016-04-05T10:37:38.264Z,944.25
2016-04-05T10:38:38.298Z,944.27
2016-04-05T10:39:38.332Z,944.26
2016-04-05T10:40:38.350Z,944.28
2016-04-05T10:41:38.384Z,944.29
2016-04-05T10:42:38.419Z,944.26
2016-04-05T10:43:38.436Z,944.26
2016-04-05T10:44:38.471Z,944.25
2016-04-05T10:45:38.505Z,944.21
2016-04-05T10:46:38.539Z,944.18
2016-04-05T10:47:38.557Z,944.22
2016-04-05T10:48:38.591Z,944.21
2016-04-05T10:49:38.625Z,944.23
2016-04-05T10:50:38.643Z,944.21
2016-04-05T10:51:38.677Z,944.17
2016-04-05T10:52:38.696Z,944.22
2016-04-05T10:53:38.729Z,944.3
2016-04-05T10:54:38.763Z,944.31
2016-04-05T10:55:38.796Z,944.26
2016-04-05T10:56:38.925Z,944.33
2016-04-05T10:57:38.849Z,944.28
2016-04-05T10:58:38.883Z,944.27
2016-04-05T10:59:38.902Z,944.25
2016-04-05T11:00:38.936Z,944.25
2016-04-05T11:01:38.970Z,944.28
2016-04-05T11:02:39.004Z,944.29
2016-04-05T11:03:39.037Z,944.32
2016-04-05T11:04:39.057Z,944.34
2016-04-05T11:05:39.090Z,944.37
2016-04-05T11:06:39.124Z,944.4
2016-04-05T11:07:39.145Z,944.38
2016-04-05T11:08:39.173Z,944.36
2016-04-05T11:09:39.193Z,944.32
2016-04-05T11:10:39.226Z,944.35
2016-04-05T11:11:39.260Z,944.37
2016-04-05T11:12:39.294Z,944.38
2016-04-05T11:13:39.328Z,944.36
2016-04-05T11:14:39.346Z,944.37
2016-04-05T11:15:39.381Z,944.36
2016-04-05T11:16:39.415Z,944.39
2016-04-05T11:17:39.433Z,944.39
2016-04-05T11:18:39.467Z,944.33
2016-04-05T11:19:39.501Z,944.31
2016-04-05T11:20:39.534Z,944.25
2016-04-05T11:21:39.553Z,944.35
2016-04-05T11:22:39.587Z,944.29
2016-04-05T11:23:39.621Z,944.33
2016-04-05T11:24:39.655Z,944.29
2016-04-05T11:25:39.672Z,944.26
2016-04-05T11:26:39.800Z,944.21
2016-04-05T11:27:39.741Z,944.26
2016-04-05T11:28:39.759Z,944.24
2016-04-05T11:29:39.794Z,944.3
2016-04-05T11:30:39.843Z,944.29
2016-04-05T11:31:39.861Z,944.32
2016-04-05T11:32:39.880Z,944.32
2016-04-05T11:33:39.913Z,944.32
2016-04-05T11:34:39.947Z,944.34
2016-04-05T11:35:39.966Z,944.29
2016-04-05T11:36:39.999Z,944.31
2016-04-05T11:37:40.033Z,944.28
2016-04-05T11:38:40.067Z,944.28
2016-04-05T11:39:40.101Z,944.25
2016-04-05T11:40:40.120Z,944.23
2016-04-05T11:41:40.153Z,944.21
2016-04-05T11:42:40.171Z,944.25
2016-04-05T11:43:40.220Z,944.22
2016-04-05T11:44:40.239Z,944.23
2016-04-05T11:45:40.273Z,944.24
2016-04-05T11:46:40.306Z,944.25
2016-04-05T11:47:40.326Z,944.23
2016-04-05T11:48:40.359Z,944.21
2016-04-05T11:49:40.394Z,944.2
2016-04-05T11:50:40.411Z,944.2
2016-04-05T11:51:40.443Z,944.22
2016-04-05T11:52:40.470Z,944.2
2016-04-05T11:53:40.494Z,944.24
2016-04-05T11:54:40.535Z,944.28
2016-04-05T11:55:40.529Z,944.3
2016-04-05T11:56:40.555Z,944.29
2016-04-05T11:57:40.571Z,944.31
2016-04-05T11:58:40.601Z,944.25
2016-04-05T11:59:40.631Z,944.28
2016-04-05T12:00:40.663Z,944.27
2016-04-05T12:01:40.694Z,944.26
2016-04-05T12:02:40.711Z,944.29
2016-04-05T12:03:40.745Z,944.28
2016-04-05T12:04:40.777Z,944.27
2016-04-05T12:05:40.809Z,944.26
2016-04-05T12:06:40.843Z,944.23
2016-04-05T12:07:40.861Z,944.24
2016-04-05T12:08:40.894Z,944.29
2016-04-05T12:09:40.927Z,944.27
2016-04-05T12:10:40.961Z,944.27
2016-04-05T12:11:40.979Z,944.27
2016-04-05T12:12:41.014Z,944.23
2016-04-05T12:13:41.047Z,944.28
2016-04-05T12:14:41.081Z,944.26
2016-04-05T12:15:41.115Z,944.26
2016-04-05T12:16:41.149Z,944.3
2016-04-05T12:17:41.183Z,944.26
2016-04-05T12:18:41.201Z,944.27
2016-04-05T12:19:41.236Z,944.28
2016-04-05T12:20:41.269Z,944.27
2016-04-05T12:21:41.303Z,944.29
2016-04-05T12:22:41.336Z,944.31
2016-04-05T12:23:41.355Z,944.25
2016-04-05T12:24:41.405Z,944.29
2016-04-05T12:25:41.424Z,944.28
2016-04-05T12:26:41.457Z,944.33
2016-04-05T12:27:41.491Z,944.3
2016-04-05T12:28:41.524Z,944.25
2016-04-05T12:29:41.560Z,944.28
2016-04-05T12:30:41.577Z,944.26
2016-04-05T12:31:41.611Z,944.25
2016-04-05T12:32:41.645Z,944.23